Time;durP1;ratioP1;P1;durP2;ratioP2;P2;SDS_P1;SDS_P2;PMS_P1;PMS_P2;Temp;Humidity;BMP_temperature;BMP_pressure;BME280_temperature;BME280_humidity;BME280_pressure;Samples;Min_cycle;Max_cycle;Signal;HPM_P1;HPM_P2
2021/06/27 00:01:17;;;;;;;3.75;3.38;;;19.70;52.50;;;;;;5047243;28;20415;-81
2021/06/27 00:03:43;;;;;;;4.93;4.43;;;19.70;52.50;;;;;;5046487;28;20400;-83
2021/06/27 00:06:10;;;;;;;3.85;3.55;;;19.70;52.60;;;;;;5046264;28;20028;-82
2021/06/27 00:08:37;;;;;;;4.55;4.15;;;19.60;52.50;;;;;;5039534;28;20033;-81
2021/06/27 00:11:06;;;;;;;4.93;4.30;;;19.60;52.60;;;;;;5026781;28;20029;-81
2021/06/27 00:13:33;;;;;;;4.38;4.00;;;19.60;52.80;;;;;;5034956;28;20025;-81
2021/06/27 00:15:59;;;;;;;5.38;4.20;;;19.60;52.90;;;;;;5045707;28;20037;-80
2021/06/27 00:18:27;;;;;;;4.45;4.03;;;19.50;52.70;;;;;;5045382;28;20025;-80
2021/06/27 00:21:00;;;;;;;6.15;3.92;;;19.50;52.90;;;;;;5046340;28;20029;-80
2021/06/27 00:23:30;;;;;;;5.82;3.72;;;19.50;53.00;;;;;;5046496;28;20128;-80
2021/06/27 00:25:58;;;;;;;4.30;3.90;;;19.50;53.00;;;;;;5044629;28;20033;-81
2021/06/27 00:28:25;;;;;;;4.45;4.05;;;19.50;53.10;;;;;;5045267;28;20033;-80
2021/06/27 00:30:52;;;;;;;4.97;4.25;;;19.50;53.20;;;;;;5046375;28;20091;-81
2021/06/27 00:33:18;;;;;;;5.13;4.43;;;19.50;53.30;;;;;;5046315;28;20049;-81
2021/06/27 00:35:45;;;;;;;4.68;4.25;;;19.40;53.20;;;;;;5047656;28;20038;-80
2021/06/27 00:38:12;;;;;;;6.43;4.15;;;19.40;53.30;;;;;;5065334;28;20029;-80
2021/06/27 00:40:39;;;;;;;5.75;5.25;;;19.40;53.50;;;;;;5050439;28;20029;-80
2021/06/27 00:43:07;;;;;;;4.90;4.40;;;19.30;53.30;;;;;;5045510;28;20064;-81
2021/06/27 00:45:34;;;;;;;4.57;4.18;;;19.30;53.40;;;;;;5029037;28;20056;-80
2021/06/27 00:48:01;;;;;;;5.05;4.65;;;19.30;53.50;;;;;;5030402;28;20128;-80
2021/06/27 00:50:31;;;;;;;5.07;4.68;;;19.30;53.70;;;;;;5030798;28;20030;-80
2021/06/27 00:52:58;;;;;;;5.32;4.80;;;19.30;54.10;;;;;;5030274;28;20030;-80
2021/06/27 00:55:24;;;;;;;5.47;4.95;;;19.30;53.90;;;;;;5029991;28;20025;-81
2021/06/27 00:57:52;;;;;;;5.75;5.15;;;19.30;53.90;;;;;;5030280;28;20029;-82
2021/06/27 01:00:25;;;;;;;5.75;5.25;;;19.20;53.90;;;;;;5048214;28;20126;-80
2021/06/27 01:02:54;;;;;;;5.50;5.07;;;19.20;53.90;;;;;;5050210;28;20072;-81
2021/06/27 01:05:24;;;;;;;6.22;4.88;;;19.20;53.90;;;;;;5050319;28;20037;-82
2021/06/27 01:07:50;;;;;;;5.50;5.00;;;19.20;54.10;;;;;;5050149;28;20032;-80
2021/06/27 01:10:16;;;;;;;6.13;5.25;;;19.20;54.10;;;;;;5030731;28;20029;-79
2021/06/27 01:12:44;;;;;;;5.60;4.72;;;19.20;54.20;;;;;;5028449;28;20120;-81
2021/06/27 01:15:12;;;;;;;5.63;4.85;;;19.10;54.10;;;;;;5028966;28;20122;-80
2021/06/27 01:17:40;;;;;;;5.72;5.22;;;19.10;54.20;;;;;;5029848;28;20552;-80
2021/06/27 01:20:11;;;;;;;6.07;5.45;;;19.10;54.20;;;;;;5026074;28;20037;-78
2021/06/27 01:22:39;;;;;;;5.72;5.15;;;19.10;54.40;;;;;;5029629;28;20033;-79
2021/06/27 01:25:07;;;;;;;6.43;5.13;;;19.00;54.20;;;;;;5029181;28;20049;-80
2021/06/27 01:27:34;;;;;;;5.68;5.13;;;19.00;54.30;;;;;;5028293;28;20120;-79
2021/06/27 01:30:00;;;;;;;6.90;5.60;;;19.00;54.30;;;;;;5045943;28;20029;-81
2021/06/27 01:32:26;;;;;;;5.70;5.13;;;19.00;54.40;;;;;;5048575;28;20155;-81
2021/06/27 01:34:52;;;;;;;7.32;5.05;;;19.00;54.50;;;;;;5050834;28;20500;-80
2021/06/27 01:37:18;;;;;;;5.45;4.90;;;19.00;54.60;;;;;;5050808;28;20071;-80
2021/06/27 01:39:44;;;;;;;5.88;5.38;;;19.00;54.60;;;;;;5050492;28;20079;-81
2021/06/27 01:42:10;;;;;;;5.93;5.43;;;19.00;54.70;;;;;;5049775;28;20542;-81
2021/06/27 01:44:36;;;;;;;5.07;4.57;;;18.90;54.60;;;;;;5051029;28;20255;-81
2021/06/27 01:47:03;;;;;;;6.05;5.47;;;19.00;54.90;;;;;;5063257;28;20030;-80
2021/06/27 01:49:29;;;;;;;6.18;5.53;;;18.90;54.80;;;;;;5047486;28;20111;-80
2021/06/27 01:51:55;;;;;;;5.45;4.80;;;18.90;54.80;;;;;;5053686;28;20108;-80
2021/06/27 01:54:21;;;;;;;6.13;5.63;;;18.80;54.70;;;;;;5053718;28;20140;-81
2021/06/27 01:56:48;;;;;;;5.30;4.90;;;18.80;54.80;;;;;;5053864;28;20610;-81
2021/06/27 01:59:14;;;;;;;5.85;5.35;;;18.80;54.90;;;;;;5054029;28;20036;-81
2021/06/27 02:01:40;;;;;;;6.32;5.78;;;18.80;55.00;;;;;;5053958;28;20432;-81
2021/06/27 02:04:08;;;;;;;5.88;5.32;;;18.80;55.10;;;;;;5053662;28;20037;-82
2021/06/27 02:06:36;;;;;;;6.22;5.30;;;18.70;55.00;;;;;;5053675;28;20087;-81
2021/06/27 02:09:06;;;;;;;6.20;5.70;;;18.70;55.00;;;;;;5053870;28;20384;-81
2021/06/27 02:11:32;;;;;;;6.65;5.90;;;18.70;55.20;;;;;;5053588;28;20190;-79
2021/06/27 02:13:59;;;;;;;6.63;6.03;;;18.70;55.20;;;;;;5068703;28;20515;-80
2021/06/27 02:16:26;;;;;;;6.15;5.55;;;18.70;55.20;;;;;;5052304;28;20036;-80
2021/06/27 02:18:52;;;;;;;6.93;6.22;;;18.60;55.10;;;;;;5068596;28;20032;-80
2021/06/27 02:21:27;;;;;;;6.25;5.65;;;18.60;55.20;;;;;;5053015;28;20029;-80
2021/06/27 02:23:53;;;;;;;7.47;6.63;;;18.60;55.30;;;;;;5053247;28;20045;-80
2021/06/27 02:26:21;;;;;;;6.50;5.90;;;18.60;55.30;;;;;;5053319;28;20031;-80
2021/06/27 02:28:48;;;;;;;5.85;5.35;;;18.60;55.40;;;;;;5051828;28;20473;-82
2021/06/27 02:31:14;;;;;;;7.47;6.15;;;18.60;55.40;;;;;;5052875;28;20029;-80
2021/06/27 02:33:41;;;;;;;7.22;6.53;;;18.60;55.50;;;;;;5052841;28;20086;-80
2021/06/27 02:36:09;;;;;;;8.27;7.15;;;18.60;55.60;;;;;;5052782;28;20036;-80
2021/06/27 02:38:35;;;;;;;7.13;6.43;;;18.60;55.60;;;;;;5052896;28;20033;-80
2021/06/27 02:41:03;;;;;;;7.43;6.72;;;18.50;55.50;;;;;;5052694;28;20036;-79
2021/06/27 02:43:29;;;;;;;7.03;6.30;;;18.50;55.50;;;;;;5067779;28;20041;-79
2021/06/27 02:45:55;;;;;;;7.05;6.35;;;18.50;55.60;;;;;;5052197;28;20048;-80
2021/06/27 02:48:21;;;;;;;7.28;6.57;;;18.50;55.70;;;;;;5052361;28;20044;-80
2021/06/27 02:50:48;;;;;;;7.85;6.13;;;18.50;55.70;;;;;;5052679;28;20025;-79
2021/06/27 02:53:14;;;;;;;7.05;6.45;;;18.50;55.70;;;;;;5052757;28;20033;-79
2021/06/27 02:55:40;;;;;;;8.10;7.30;;;18.50;55.70;;;;;;5052435;28;20063;-78
2021/06/27 02:58:06;;;;;;;8.45;6.18;;;18.50;55.80;;;;;;5052042;28;20057;-80
2021/06/27 03:00:33;;;;;;;7.43;6.72;;;18.40;55.70;;;;;;5051936;28;20029;-80
2021/06/27 03:03:00;;;;;;;9.63;6.43;;;18.40;55.80;;;;;;5053129;28;20045;-81
2021/06/27 03:05:26;;;;;;;7.57;6.88;;;18.40;56.40;;;;;;5050810;28;20433;-79
2021/06/27 03:07:53;;;;;;;7.25;6.53;;;18.40;55.90;;;;;;5067599;28;20060;-81
2021/06/27 03:10:20;;;;;;;8.40;7.60;;;18.40;56.00;;;;;;5067637;28;20103;-80
2021/06/27 03:12:49;;;;;;;7.90;6.95;;;18.40;56.00;;;;;;5051469;28;20055;-80
2021/06/27 03:15:19;;;;;;;8.20;7.40;;;18.40;56.10;;;;;;5067408;28;20035;-80
2021/06/27 03:17:46;;;;;;;7.68;6.97;;;18.40;56.20;;;;;;5051948;28;20033;-82
2021/06/27 03:20:14;;;;;;;8.20;7.40;;;18.40;56.20;;;;;;5067622;28;20602;-81
2021/06/27 03:22:41;;;;;;;7.90;7.18;;;18.40;56.20;;;;;;5067060;28;20028;-81
2021/06/27 03:25:09;;;;;;;8.52;7.72;;;18.40;56.30;;;;;;5052171;28;20172;-80
2021/06/27 03:27:36;;;;;;;8.73;7.93;;;18.30;56.10;;;;;;5051594;28;20036;-79
2021/06/27 03:30:06;;;;;;;7.72;6.95;;;18.40;56.40;;;;;;5050634;28;20513;-81
2021/06/27 03:32:33;;;;;;;8.45;7.63;;;18.40;56.40;;;;;;5063495;28;20073;-81
2021/06/27 03:34:59;;;;;;;9.13;7.95;;;18.30;56.30;;;;;;5030369;28;20456;-82
2021/06/27 03:37:25;;;;;;;8.32;7.53;;;18.30;56.30;;;;;;5032245;28;20034;-81
2021/06/27 03:39:51;;;;;;;8.25;7.40;;;18.30;56.40;;;;;;5031553;28;20570;-80
2021/06/27 03:42:17;;;;;;;9.00;8.10;;;18.30;56.40;;;;;;5031591;28;20030;-80
2021/06/27 03:44:44;;;;;;;8.77;7.88;;;18.30;56.40;;;;;;5031890;28;20041;-80
2021/06/27 03:47:10;;;;;;;9.73;8.73;;;18.30;56.50;;;;;;5047064;28;20029;-80
2021/06/27 03:49:36;;;;;;;9.48;8.40;;;18.30;56.50;;;;;;5031116;28;20034;-81
2021/06/27 03:52:02;;;;;;;8.52;7.82;;;18.30;56.60;;;;;;5030046;28;20685;-81
2021/06/27 03:54:28;;;;;;;9.43;7.85;;;18.20;56.40;;;;;;5031669;28;20033;-79
2021/06/27 03:56:54;;;;;;;8.15;7.35;;;18.20;56.50;;;;;;5030229;28;20152;-81
2021/06/27 03:59:20;;;;;;;8.10;7.38;;;18.20;56.50;;;;;;5030318;28;20032;-81
2021/06/27 04:01:46;;;;;;;9.70;8.63;;;18.20;56.50;;;;;;5031590;28;20026;-81
2021/06/27 04:04:12;;;;;;;8.80;8.00;;;18.20;56.60;;;;;;5031250;28;20117;-80
2021/06/27 04:06:38;;;;;;;9.00;8.10;;;18.20;56.60;;;;;;5029866;28;20109;-80
2021/06/27 04:09:04;;;;;;;9.80;8.88;;;18.20;56.70;;;;;;5031621;28;20488;-80
2021/06/27 04:11:30;;;;;;;9.38;8.52;;;18.20;56.70;;;;;;5045812;28;20029;-81
2021/06/27 04:13:56;;;;;;;8.75;8.00;;;18.20;56.70;;;;;;5031547;28;20063;-80
2021/06/27 04:16:22;;;;;;;9.00;8.20;;;18.20;56.80;;;;;;5031400;28;20033;-80
2021/06/27 04:18:48;;;;;;;9.02;8.23;;;18.20;56.80;;;;;;5029896;28;20057;-82
2021/06/27 04:21:14;;;;;;;10.52;9.05;;;18.20;56.80;;;;;;5013515;28;20030;-82
2021/06/27 04:23:40;;;;;;;9.50;8.60;;;18.20;56.90;;;;;;5029972;28;20048;-80
2021/06/27 04:26:07;;;;;;;9.25;8.35;;;18.20;56.90;;;;;;5031274;28;20381;-81
2021/06/27 04:28:33;;;;;;;9.70;8.80;;;18.20;56.90;;;;;;5030821;28;20029;-82
2021/06/27 04:30:59;;;;;;;10.38;9.43;;;18.20;56.90;;;;;;5046840;28;20552;-81
2021/06/27 04:33:25;;;;;;;10.38;9.38;;;18.20;56.90;;;;;;5029961;28;20604;-82
2021/06/27 04:35:52;;;;;;;11.02;9.93;;;18.20;57.00;;;;;;5029982;28;20627;-81
2021/06/27 04:38:19;;;;;;;11.48;9.30;;;18.20;57.00;;;;;;5031274;28;20109;-82
2021/06/27 04:40:45;;;;;;;10.68;9.70;;;18.20;57.00;;;;;;5031086;28;20388;-81
2021/06/27 04:43:12;;;;;;;9.98;9.07;;;18.20;57.00;;;;;;5029662;28;20101;-80
2021/06/27 04:45:43;;;;;;;10.82;9.75;;;18.20;57.00;;;;;;5029935;28;20025;-80
2021/06/27 04:48:10;;;;;;;10.82;9.75;;;18.20;57.10;;;;;;5036456;28;20040;-81
2021/06/27 04:50:37;;;;;;;10.27;9.27;;;18.20;57.00;;;;;;5043147;28;20072;-81
2021/06/27 04:53:04;;;;;;;11.75;10.55;;;18.20;57.10;;;;;;5047922;28;20057;-81
2021/06/27 04:55:30;;;;;;;11.35;10.15;;;18.20;57.00;;;;;;5047710;28;20033;-81
2021/06/27 04:57:56;;;;;;;11.20;10.10;;;18.30;57.20;;;;;;5047902;28;20025;-79
2021/06/27 05:00:22;;;;;;;11.75;10.70;;;18.30;57.20;;;;;;5047958;28;20036;-79
2021/06/27 05:02:48;;;;;;;10.63;9.63;;;18.30;57.20;;;;;;5046192;28;20480;-83
2021/06/27 05:05:14;;;;;;;11.98;10.95;;;18.30;57.20;;;;;;5046215;28;20025;-82
2021/06/27 05:07:42;;;;;;;12.68;10.70;;;18.30;57.20;;;;;;5046003;28;20037;-81
2021/06/27 05:10:08;;;;;;;12.38;11.18;;;18.30;57.20;;;;;;5045385;28;20021;-80
2021/06/27 05:12:34;;;;;;;13.20;11.90;;;18.30;57.20;;;;;;5045913;28;20083;-80
2021/06/27 05:15:01;;;;;;;11.40;10.30;;;18.20;57.00;;;;;;5046360;28;20033;-80
2021/06/27 05:17:27;;;;;;;11.32;10.20;;;18.30;57.20;;;;;;5044575;28;20098;-80
2021/06/27 05:19:53;;;;;;;12.00;10.80;;;18.30;57.20;;;;;;5046277;28;20041;-80
2021/06/27 05:22:19;;;;;;;12.05;10.95;;;18.30;57.30;;;;;;5047060;28;20033;-81
2021/06/27 05:24:45;;;;;;;13.10;11.82;;;18.20;57.10;;;;;;5031588;28;20040;-81
2021/06/27 05:27:11;;;;;;;13.05;11.85;;;18.20;57.10;;;;;;5049477;28;20081;-80
2021/06/27 05:29:37;;;;;;;12.15;11.13;;;18.20;57.10;;;;;;5049337;28;20025;-80
2021/06/27 05:32:04;;;;;;;11.80;10.70;;;18.20;57.20;;;;;;5049058;28;20041;-80
2021/06/27 05:34:30;;;;;;;11.98;10.82;;;18.20;57.10;;;;;;5049601;28;20032;-80
2021/06/27 05:37:00;;;;;;;12.55;11.35;;;18.30;57.40;;;;;;5049719;28;20576;-78
2021/06/27 05:39:26;;;;;;;11.75;10.60;;;18.30;57.40;;;;;;5049091;28;20507;-78
2021/06/27 05:41:52;;;;;;;12.85;11.52;;;18.30;57.30;;;;;;5038620;28;20029;-81
2021/06/27 05:44:22;;;;;;;13.68;12.27;;;18.30;57.40;;;;;;5039809;28;20079;-80
2021/06/27 05:46:48;;;;;;;11.43;10.32;;;18.30;57.60;;;;;;5045725;28;20070;-82
2021/06/27 05:49:14;;;;;;;11.60;10.50;;;18.30;57.40;;;;;;5045152;28;20116;-84
2021/06/27 05:51:41;;;;;;;12.10;10.90;;;18.30;57.40;;;;;;5043741;28;20017;-84
2021/06/27 05:54:08;;;;;;;10.65;9.60;;;18.40;57.60;;;;;;5029179;28;20029;-82
2021/06/27 05:56:35;;;;;;;10.70;9.70;;;18.30;57.30;;;;;;5038639;28;20029;-82
2021/06/27 05:59:01;;;;;;;10.63;9.68;;;18.40;57.50;;;;;;5042809;28;20027;-81
2021/06/27 06:01:27;;;;;;;13.20;10.15;;;18.40;57.50;;;;;;5061384;28;20504;-80
2021/06/27 06:03:53;;;;;;;11.13;10.13;;;18.40;57.40;;;;;;5048989;28;20041;-81
2021/06/27 06:06:21;;;;;;;11.35;10.10;;;18.40;57.40;;;;;;5047601;28;20384;-81
2021/06/27 06:08:47;;;;;;;15.13;9.90;;;18.40;57.40;;;;;;5048464;28;20033;-80
2021/06/27 06:11:15;;;;;;;11.07;9.95;;;18.40;57.40;;;;;;5047675;28;20033;-79
2021/06/27 06:13:42;;;;;;;10.93;9.77;;;18.40;57.40;;;;;;5048131;28;20063;-81
2021/06/27 06:16:09;;;;;;;10.25;9.30;;;18.40;57.40;;;;;;5048932;28;20094;-83
2021/06/27 06:18:36;;;;;;;10.43;9.43;;;18.40;57.40;;;;;;5027547;28;20040;-80
2021/06/27 06:21:03;;;;;;;9.85;8.52;;;18.40;57.40;;;;;;5041886;28;20097;-83
2021/06/27 06:23:30;;;;;;;9.02;8.13;;;18.50;57.60;;;;;;5038814;28;20465;-80
2021/06/27 06:25:56;;;;;;;11.57;8.80;;;18.50;57.60;;;;;;5034176;28;20030;-80
2021/06/27 06:28:22;;;;;;;8.80;8.00;;;18.50;57.60;;;;;;5033703;28;20372;-80
2021/06/27 06:30:48;;;;;;;8.48;7.68;;;18.50;57.60;;;;;;5049017;28;20033;-78
2021/06/27 06:33:14;;;;;;;8.95;8.00;;;18.50;57.70;;;;;;5039157;28;20075;-81
2021/06/27 06:35:41;;;;;;;7.88;7.15;;;18.50;57.70;;;;;;5048101;28;20120;-83
2021/06/27 06:38:07;;;;;;;7.55;6.95;;;18.50;57.80;;;;;;5041550;28;20469;-84
2021/06/27 06:40:35;;;;;;;8.18;7.47;;;18.50;57.80;;;;;;5047852;28;20036;-80
2021/06/27 06:43:01;;;;;;;8.15;7.13;;;18.50;57.90;;;;;;5043592;28;20037;-81
2021/06/27 06:45:27;;;;;;;8.48;7.78;;;18.50;58.00;;;;;;5047097;28;20025;-82
2021/06/27 06:47:54;;;;;;;8.57;7.65;;;18.50;58.00;;;;;;5042399;28;20025;-80
2021/06/27 06:50:22;;;;;;;7.65;6.95;;;18.50;58.20;;;;;;5033957;28;20448;-79
2021/06/27 06:52:48;;;;;;;7.93;6.75;;;18.50;58.80;;;;;;5045438;28;20037;-78
2021/06/27 06:55:14;;;;;;;7.90;7.15;;;18.50;59.40;;;;;;5047560;28;20056;-79
2021/06/27 06:57:41;;;;;;;7.30;6.55;;;18.50;59.60;;;;;;5044279;28;20512;-77
2021/06/27 07:00:09;;;;;;;8.05;6.70;;;18.50;60.00;;;;;;5033056;28;20064;-77
2021/06/27 07:02:41;;;;;;;7.03;6.32;;;18.60;60.50;;;;;;5041577;28;20032;-77
2021/06/27 07:05:08;;;;;;;7.53;6.88;;;18.60;60.70;;;;;;5038044;28;20033;-78
2021/06/27 07:07:35;;;;;;;7.15;6.47;;;18.60;60.80;;;;;;5038059;28;20167;-77
2021/06/27 07:10:04;;;;;;;7.18;6.47;;;18.60;61.00;;;;;;5062276;28;20033;-82
2021/06/27 07:12:31;;;;;;;7.00;5.90;;;18.70;61.40;;;;;;5056562;28;20104;-79
2021/06/27 07:14:57;;;;;;;6.85;6.15;;;18.70;61.50;;;;;;5045129;28;20053;-80
2021/06/27 07:17:23;;;;;;;7.05;6.30;;;18.70;61.70;;;;;;5057150;28;20561;-81
2021/06/27 07:19:49;;;;;;;8.00;6.03;;;18.70;62.40;;;;;;5039283;28;20044;-79
2021/06/27 07:22:15;;;;;;;13.82;6.80;;;18.80;62.20;;;;;;5037685;28;20025;-82
2021/06/27 07:24:41;;;;;;;6.32;5.78;;;18.80;62.40;;;;;;5038862;28;20254;-83
2021/06/27 07:27:08;;;;;;;7.10;6.40;;;18.80;62.40;;;;;;5036181;28;20022;-80
2021/06/27 07:29:34;;;;;;;7.10;6.40;;;18.90;62.70;;;;;;5038409;28;20048;-83
2021/06/27 07:32:00;;;;;;;6.95;5.93;;;18.90;62.80;;;;;;5035949;28;20052;-83
2021/06/27 07:34:27;;;;;;;7.43;6.65;;;18.90;62.80;;;;;;5046029;28;20630;-85
2021/06/27 07:36:54;;;;;;;7.80;6.60;;;19.00;63.10;;;;;;5032988;28;20032;-84
2021/06/27 07:39:21;;;;;;;6.47;5.88;;;19.00;63.10;;;;;;5021677;28;20025;-83
2021/06/27 07:41:47;;;;;;;6.93;5.93;;;19.10;63.20;;;;;;5036165;28;20469;-83
2021/06/27 07:44:13;;;;;;;8.43;6.07;;;19.10;63.10;;;;;;5031293;28;20108;-82
2021/06/27 07:46:39;;;;;;;6.95;6.20;;;19.10;63.10;;;;;;5034416;28;20596;-81
2021/06/27 07:49:05;;;;;;;5.63;5.13;;;19.10;63.00;;;;;;5043795;28;20059;-82
2021/06/27 07:51:31;;;;;;;5.65;5.15;;;19.10;63.00;;;;;;5041934;28;20098;-86
2021/06/27 07:53:57;;;;;;;6.57;5.97;;;19.20;63.10;;;;;;5047536;28;20507;-89
2021/06/27 07:56:23;;;;;;;6.47;5.88;;;19.20;63.10;;;;;;5031597;28;20037;-90
2021/06/27 07:58:49;;;;;;;6.07;5.55;;;19.20;63.10;;;;;;5034856;28;20052;-84
2021/06/27 08:01:15;;;;;;;6.72;6.03;;;19.20;63.30;;;;;;5042612;28;20025;-92
2021/06/27 08:03:41;;;;;;;7.60;6.35;;;19.20;63.40;;;;;;5042617;28;20500;-88
2021/06/27 08:06:07;;;;;;;6.88;6.10;;;19.20;63.50;;;;;;5030655;28;20044;-89
2021/06/27 08:08:33;;;;;;;5.57;5.07;;;19.30;63.90;;;;;;5025796;28;20052;-85
2021/06/27 08:10:59;;;;;;;10.45;5.38;;;19.30;63.90;;;;;;5031077;28;20071;-80
2021/06/27 08:13:25;;;;;;;5.75;5.15;;;19.30;64.00;;;;;;5041089;28;20080;-80
2021/06/27 08:15:51;;;;;;;7.63;5.70;;;19.30;63.90;;;;;;5057712;28;20436;-80
2021/06/27 08:18:17;;;;;;;7.13;5.60;;;19.40;64.00;;;;;;5044104;28;20029;-81
2021/06/27 08:20:43;;;;;;;6.82;5.25;;;19.40;63.90;;;;;;5043898;28;20126;-82
2021/06/27 08:23:10;;;;;;;6.15;5.55;;;19.40;63.80;;;;;;5042713;28;20568;-81
2021/06/27 08:25:36;;;;;;;6.10;5.22;;;19.40;63.70;;;;;;5027897;28;20029;-80
2021/06/27 08:28:04;;;;;;;7.15;6.07;;;19.40;63.60;;;;;;5060598;28;20021;-80
2021/06/27 08:30:30;;;;;;;7.88;5.53;;;19.40;63.50;;;;;;5045795;28;20035;-79
2021/06/27 08:32:56;;;;;;;5.80;5.30;;;19.50;63.50;;;;;;5037082;28;20512;-83
2021/06/27 08:35:23;;;;;;;7.43;5.70;;;19.60;63.60;;;;;;5009550;28;20100;-79
2021/06/27 08:37:50;;;;;;;7.50;5.97;;;19.70;64.20;;;;;;5027837;28;20028;-79
2021/06/27 08:40:18;;;;;;;6.20;5.60;;;19.80;63.50;;;;;;5045637;28;20033;-80
2021/06/27 08:42:47;;;;;;;5.68;5.10;;;19.90;63.40;;;;;;5054963;28;20440;-80
2021/06/27 08:45:16;;;;;;;7.18;5.32;;;20.00;63.30;;;;;;5036249;28;20032;-80
2021/06/27 08:47:43;;;;;;;6.25;5.07;;;20.20;63.40;;;;;;5040454;28;20476;-81
2021/06/27 08:50:12;;;;;;;6.72;5.00;;;20.30;63.30;;;;;;5037335;28;20026;-80
2021/06/27 08:52:41;;;;;;;5.47;4.97;;;20.40;63.30;;;;;;5032607;28;20028;-83
2021/06/27 08:55:08;;;;;;;6.47;5.45;;;20.50;63.20;;;;;;5037190;28;20392;-84
2021/06/27 08:57:35;;;;;;;4.97;4.45;;;20.60;63.10;;;;;;5029103;28;20034;-82
2021/06/27 09:00:03;;;;;;;7.18;5.00;;;20.70;63.10;;;;;;5037902;28;20033;-80
2021/06/27 09:02:30;;;;;;;5.00;4.45;;;20.80;63.00;;;;;;5038961;28;20026;-81
2021/06/27 09:04:55;;;;;;;5.72;4.72;;;21.00;63.10;;;;;;5041713;28;20069;-83
2021/06/27 09:07:39;;;;;;;5.00;4.47;;;21.10;63.00;;;;;;5034826;28;20072;-80
2021/06/27 09:10:21;;;;;;;6.10;5.10;;;21.20;62.90;;;;;;5030256;28;20415;-81
2021/06/27 09:12:57;;;;;;;12.02;7.13;;;21.30;62.80;;;;;;5035903;28;20059;-77
2021/06/27 09:15:37;;;;;;;6.20;5.57;;;21.40;62.80;;;;;;5046785;28;20060;-78
2021/06/27 09:18:14;;;;;;;6.95;5.72;;;21.50;62.80;;;;;;5040794;28;20052;-78
2021/06/27 09:20:46;;;;;;;11.45;5.50;;;21.60;62.80;;;;;;5037559;28;20025;-79
2021/06/27 09:23:14;;;;;;;7.07;5.75;;;21.60;62.70;;;;;;5036859;28;20362;-78
2021/06/27 09:25:42;;;;;;;9.32;5.28;;;21.70;62.70;;;;;;5040685;28;20510;-77
2021/06/27 09:28:18;;;;;;;7.53;5.28;;;21.70;62.50;;;;;;5036333;28;20175;-77
2021/06/27 09:30:50;;;;;;;6.07;5.15;;;21.70;62.40;;;;;;5040434;28;20033;-77
2021/06/27 09:33:24;;;;;;;7.25;4.85;;;21.70;62.30;;;;;;5043845;28;20050;-77
2021/06/27 09:36:02;;;;;;;5.07;4.57;;;21.80;62.40;;;;;;5031059;28;20037;-78
2021/06/27 09:38:30;;;;;;;6.20;5.07;;;21.80;62.30;;;;;;5038399;28;20078;-78
2021/06/27 09:41:18;;;;;;;6.75;5.22;;;21.80;62.20;;;;;;5019008;28;20029;-78
2021/06/27 09:43:58;;;;;;;4.90;4.22;;;21.80;62.10;;;;;;5037574;28;20067;-79
2021/06/27 09:46:32;;;;;;;8.02;4.72;;;21.80;61.90;;;;;;5032391;28;20108;-79
2021/06/27 09:49:00;;;;;;;5.15;4.57;;;21.80;61.90;;;;;;5027864;28;20033;-78
2021/06/27 09:51:29;;;;;;;5.75;4.53;;;21.80;61.90;;;;;;5028863;28;20033;-77
2021/06/27 09:53:55;;;;;;;7.05;5.25;;;21.80;61.90;;;;;;5044377;28;20433;-77
2021/06/27 09:56:25;;;;;;;5.00;4.50;;;21.80;61.80;;;;;;5048991;28;20032;-77
2021/06/27 09:59:03;;;;;;;5.10;4.60;;;21.80;61.70;;;;;;5047346;28;20044;-79
2021/06/27 10:01:31;;;;;;;5.43;4.65;;;21.80;61.60;;;;;;5047099;28;20522;-78
2021/06/27 10:03:59;;;;;;;4.97;4.25;;;21.90;61.70;;;;;;5045549;28;20040;-78
2021/06/27 10:06:28;;;;;;;5.32;4.43;;;21.90;61.60;;;;;;5046518;28;20032;-78
2021/06/27 10:09:06;;;;;;;6.07;4.68;;;21.90;61.50;;;;;;5033244;28;20533;-78
2021/06/27 10:11:32;;;;;;;7.13;4.60;;;22.00;61.60;;;;;;5031404;28;20104;-79
2021/06/27 10:14:09;;;;;;;7.00;4.88;;;22.00;61.50;;;;;;5039647;28;20128;-79
2021/06/27 10:16:36;;;;;;;8.10;5.47;;;22.00;61.50;;;;;;5025770;28;20022;-79
2021/06/27 10:19:03;;;;;;;6.07;5.15;;;22.00;61.40;;;;;;5039219;28;20026;-78
2021/06/27 10:21:30;;;;;;;7.85;4.57;;;22.10;61.50;;;;;;5031791;28;20084;-78
2021/06/27 10:23:57;;;;;;;9.00;5.50;;;22.20;61.60;;;;;;5021269;28;20056;-80
2021/06/27 10:26:25;;;;;;;6.85;5.63;;;22.30;61.60;;;;;;5046425;28;20029;-79
2021/06/27 10:28:52;;;;;;;6.50;4.63;;;22.40;61.60;;;;;;5043028;28;20430;-80
2021/06/27 10:31:24;;;;;;;6.93;5.10;;;22.40;61.40;;;;;;5060219;28;20030;-80
2021/06/27 10:33:50;;;;;;;6.68;5.25;;;22.50;61.50;;;;;;5039672;28;20068;-80
2021/06/27 10:36:29;;;;;;;6.25;5.43;;;22.60;61.50;;;;;;5048930;28;20029;-80
2021/06/27 10:38:57;;;;;;;5.32;4.75;;;22.70;61.50;;;;;;5047474;28;20025;-82
2021/06/27 10:41:50;;;;;;;6.20;5.22;;;22.80;61.50;;;;;;5046979;28;20448;-79
2021/06/27 10:44:17;;;;;;;11.95;10.82;;;22.90;61.50;;;;;;5045410;28;20045;-80
2021/06/27 10:46:55;;;;;;;11.48;10.32;;;23.00;61.50;;;;;;5039227;28;20494;-80
2021/06/27 10:49:30;;;;;;;9.77;8.93;;;23.10;61.60;;;;;;5041271;28;20119;-77
2021/06/27 10:51:58;;;;;;;27.30;25.00;;;23.20;61.70;;;;;;5046961;28;20493;-79
2021/06/27 10:54:24;;;;;;;25.10;23.02;;;23.20;61.50;;;;;;5046863;28;20618;-78
2021/06/27 10:57:20;;;;;;;19.73;18.05;;;23.30;61.60;;;;;;5047618;28;20032;-76
2021/06/27 10:59:53;;;;;;;32.33;29.58;;;23.50;61.70;;;;;;5047604;28;20032;-78
2021/06/27 11:02:39;;;;;;;38.60;35.65;;;23.50;61.40;;;;;;5047226;28;20041;-78
2021/06/27 11:05:33;;;;;;;33.17;30.52;;;23.70;61.70;;;;;;5047697;28;20062;-81
2021/06/27 11:08:01;;;;;;;29.60;27.50;;;23.80;61.60;;;;;;5038427;28;20399;-80
2021/06/27 11:10:29;;;;;;;27.75;25.42;;;23.80;61.40;;;;;;5043007;28;20484;-85
2021/06/27 11:12:58;;;;;;;25.60;23.67;;;23.90;61.50;;;;;;5049430;28;20037;-80
2021/06/27 11:15:29;;;;;;;21.67;20.08;;;24.00;61.50;;;;;;5043345;28;20156;-80
2021/06/27 11:17:59;;;;;;;22.75;20.55;;;24.10;61.60;;;;;;5041111;28;20054;-86
2021/06/27 11:20:30;;;;;;;21.98;20.27;;;24.10;61.40;;;;;;5026022;28;20030;-80
2021/06/27 11:22:57;;;;;;;34.58;31.27;;;24.20;61.40;;;;;;5026562;28;20075;-81
2021/06/27 11:25:39;;;;;;;64.10;58.35;;;24.30;61.50;;;;;;5026463;28;20481;-81
2021/06/27 11:28:23;;;;;;;78.03;71.40;;;24.50;61.70;;;;;;5037673;28;20033;-80
2021/06/27 11:30:52;;;;;;;85.35;78.07;;;24.60;61.60;;;;;;5047191;28;20076;-79
2021/06/27 11:33:21;;;;;;;82.43;75.18;;;24.90;61.80;;;;;;5046656;28;20053;-79
2021/06/27 11:35:51;;;;;;;80.72;73.68;;;25.10;61.60;;;;;;5047120;28;20516;-79
2021/06/27 11:38:46;;;;;;;112.45;102.88;;;25.30;61.30;;;;;;5046813;28;20501;-83
2021/06/27 11:41:18;;;;;;;127.40;116.18;;;25.50;61.20;;;;;;5047219;28;20515;-81
2021/06/27 11:44:00;;;;;;;150.73;137.80;;;25.70;61.10;;;;;;5045631;28;20037;-82
2021/06/27 11:46:39;;;;;;;198.73;181.88;;;25.80;60.90;;;;;;5046304;28;20044;-83
2021/06/27 11:49:11;;;;;;;190.75;174.18;;;26.00;60.70;;;;;;5040553;28;20086;-84
2021/06/27 11:51:39;;;;;;;173.63;158.77;;;26.10;60.50;;;;;;5020125;28;20025;-81
2021/06/27 11:54:06;;;;;;;159.90;145.68;;;26.20;60.50;;;;;;5012596;28;20041;-83
2021/06/27 11:57:04;;;;;;;153.75;140.60;;;26.30;60.40;;;;;;5035560;28;20032;-83
2021/06/27 11:59:31;;;;;;;147.45;134.55;;;26.50;60.30;;;;;;5036610;28;20578;-81
2021/06/27 12:02:06;;;;;;;142.75;130.38;;;26.60;60.10;;;;;;5032904;28;20030;-81
2021/06/27 12:04:42;;;;;;;140.02;127.85;;;26.80;59.90;;;;;;5020138;28;20040;-80
2021/06/27 12:07:33;;;;;;;130.88;119.43;;;27.00;59.70;;;;;;5047285;28;20503;-81
2021/06/27 12:10:10;;;;;;;130.40;119.07;;;27.10;60.00;;;;;;5034853;28;20037;-81
2021/06/27 12:12:49;;;;;;;119.30;109.18;;;27.10;59.20;;;;;;5035313;28;20549;-81
2021/06/27 12:15:15;;;;;;;120.47;110.15;;;27.20;59.10;;;;;;5037669;28;20375;-80
2021/06/27 12:18:13;;;;;;;114.18;104.00;;;27.20;59.10;;;;;;5035975;28;20036;-81
2021/06/27 12:20:48;;;;;;;110.35;101.18;;;27.30;58.90;;;;;;5038040;28;20040;-81
2021/06/27 12:23:37;;;;;;;108.90;99.40;;;27.40;58.80;;;;;;5037761;28;20037;-83
2021/06/27 12:26:16;;;;;;;101.45;92.78;;;27.40;58.70;;;;;;5017715;28;20030;-82
2021/06/27 12:28:47;;;;;;;98.43;89.97;;;27.30;58.50;;;;;;5039902;28;20036;-82
2021/06/27 12:31:20;;;;;;;99.38;90.90;;;27.40;58.50;;;;;;5047252;28;20556;-79
2021/06/27 12:33:50;;;;;;;91.80;83.72;;;27.30;58.40;;;;;;5045859;28;20033;-80
2021/06/27 12:36:24;;;;;;;91.03;83.30;;;27.40;58.40;;;;;;5039311;28;20022;-81
2021/06/27 12:38:55;;;;;;;91.22;83.03;;;27.40;58.20;;;;;;5035890;28;20030;-82
2021/06/27 12:41:24;;;;;;;85.03;77.72;;;27.60;58.30;;;;;;5039808;28;20495;-84
2021/06/27 12:43:57;;;;;;;83.05;76.15;;;27.70;58.10;;;;;;5038605;28;20044;-79
2021/06/27 12:46:39;;;;;;;77.97;71.57;;;27.80;57.90;;;;;;5038666;28;20028;-81
2021/06/27 12:49:14;;;;;;;77.57;71.05;;;27.80;57.70;;;;;;5042166;28;20601;-81